»·PEaware :: ASA898 PHNL-KSAN

ASA898 :: PHNL-KSAN

FLIGHT INFORMATION

Flight Status: Arrived
Operator:
Alaska Airlines
More flights by this operator :: More flights under this callsign
Pilot: Daniel O. (11975)
Aircraft: AIRBUS A320
(A320)
More flights by this aircraft type
Origin: PHNL Honolulu Intl
United States
Destination: KSAN San Diego Intl-Lindbergh
United States
More flights between these airports :: More routes between these airports
Route: MKK4 EBBER R577 ETECO FOOTS R578 FICKY C1177 SXC COMIX2
File this flight plan on PilotEdge
Remarks:
Altitude:
(Current/Filed)
35,000ft
Speed:
(Current/Filed)
450kts
Departed: 12-Feb-20 05:08 PM
Arrived: 12-Feb-20 11:37 PM
Distance/Time
Traveled:
2266nm/6:29
Distance/Time
To Go:
Arrived

Flight Plot

Page will automatically refresh every two minutes.

Flight plan parsing failed; only flown route is shown


Map Options




Map Legend


Flown Route
Filed Route
Departure Airport
Arrival Airport
Navaid (VOR, NDB)
Fix

Horizontal Profiles

Position Reports

Time Latitude Longitude Heading Altitude Ground
Speed
12-Feb-20 16:57 21.328718 -157.915026 0 30ft 2kts
12-Feb-20 16:58 21.328169 -157.915030 0 28ft 1kts
12-Feb-20 16:59 21.327794 -157.914811 302 28ft 0kts
12-Feb-20 17:00 21.327794 -157.914811 302 28ft 0kts
12-Feb-20 17:01 21.327725 -157.916239 268 27ft 21kts
12-Feb-20 17:02 21.327715 -157.922164 270 32ft 16kts
12-Feb-20 17:03 21.327400 -157.928309 264 29ft 27kts
12-Feb-20 17:04 21.327371 -157.936269 269 26ft 25kts
12-Feb-20 17:05 21.327366 -157.943250 270 26ft 14kts
12-Feb-20 17:06 21.325245 -157.942926 97 26ft 6kts
12-Feb-20 17:07 21.325279 -157.923768 89 83ft 172kts
12-Feb-20 17:08 21.322133 -157.870634 106 2676ft 199kts
12-Feb-20 17:09 21.303468 -157.803280 106 4483ft 260kts
12-Feb-20 17:10 21.283511 -157.727491 105 7225ft 270kts
12-Feb-20 17:11 21.263125 -157.648928 105 9838ft 279kts
12-Feb-20 17:12 21.240728 -157.562457 105 11147ft 330kts
12-Feb-20 17:13 21.214715 -157.462015 105 12628ft 358kts
12-Feb-20 17:14 21.187775 -157.358080 104 14483ft 367kts
12-Feb-20 17:15 21.160291 -157.252391 104 16275ft 372kts
12-Feb-20 17:16 21.147769 -157.143479 71 17761ft 379kts
12-Feb-20 17:18 21.189202 -157.038742 68 19249ft 384kts
12-Feb-20 17:19 21.231417 -156.932533 68 20565ft 390kts
12-Feb-20 17:20 21.274144 -156.824626 68 21771ft 396kts
12-Feb-20 17:21 21.317293 -156.715404 69 22899ft 400kts
12-Feb-20 17:22 21.332239 -156.598833 91 23907ft 400kts
12-Feb-20 17:23 21.329830 -156.479709 91 24878ft 403kts
12-Feb-20 17:24 21.327319 -156.358630 91 25760ft 406kts
12-Feb-20 17:25 21.324706 -156.237194 91 26604ft 410kts
12-Feb-20 17:26 21.321979 -156.114568 91 27360ft 413kts
12-Feb-20 17:27 21.319150 -155.991359 92 28159ft 413kts
12-Feb-20 17:28 21.316265 -155.869187 93 29163ft 408kts
12-Feb-20 17:29 21.313303 -155.747961 93 30003ft 405kts
12-Feb-20 17:30 21.310286 -155.627931 92 30780ft 402kts
12-Feb-20 17:31 21.307188 -155.508129 92 31459ft 401kts
12-Feb-20 17:32 21.304028 -155.389086 91 32095ft 400kts
12-Feb-20 17:33 21.300797 -155.270498 92 32738ft 398kts
12-Feb-20 17:33 21.298033 -155.171464 92 33242ft 397kts
12-Feb-20 17:35 21.294093 -155.033656 92 33875ft 396kts
12-Feb-20 17:36 21.290647 -154.916226 93 34409ft 394kts
12-Feb-20 17:36 21.287715 -154.818440 93 34797ft 393kts
12-Feb-20 17:37 21.293386 -154.704284 80 34928ft 386kts
12-Feb-20 17:39 21.322521 -154.573890 81 34930ft 377kts
12-Feb-20 17:40 21.346561 -154.465611 81 34934ft 377kts
12-Feb-20 17:40 21.365700 -154.379145 82 34933ft 379kts
12-Feb-20 17:41 21.390035 -154.268902 83 34932ft 385kts
12-Feb-20 17:43 21.415252 -154.154244 83 34929ft 398kts
12-Feb-20 17:43 21.436567 -154.057164 83 34927ft 402kts
12-Feb-20 17:44 21.462124 -153.940347 84 34930ft 405kts
12-Feb-20 17:45 21.487926 -153.821952 84 34972ft 408kts
12-Feb-20 17:46 21.513714 -153.703241 84 34978ft 409kts
12-Feb-20 17:47 21.539438 -153.584380 84 34954ft 408kts
12-Feb-20 17:48 21.565036 -153.465638 84 34923ft 408kts
12-Feb-20 17:49 21.602084 -153.349200 68 34912ft 429kts
12-Feb-20 17:50 21.663072 -153.238807 68 34929ft 431kts
12-Feb-20 17:51 21.723513 -153.127394 70 34929ft 429kts
12-Feb-20 17:52 21.780481 -153.014563 70 34924ft 431kts
12-Feb-20 17:53 21.837681 -152.901069 70 34916ft 433kts
12-Feb-20 17:54 21.894529 -152.788031 70 34919ft 436kts
12-Feb-20 17:55 21.952810 -152.671899 70 34938ft 439kts
12-Feb-20 17:56 22.010831 -152.556021 69 34941ft 441kts
12-Feb-20 17:57 22.069096 -152.439412 69 34945ft 442kts
12-Feb-20 17:58 22.127365 -152.322529 70 34940ft 443kts
12-Feb-20 17:59 22.185565 -152.205509 70 34925ft 444kts
12-Feb-20 18:00 22.243799 -152.088161 70 34938ft 445kts
12-Feb-20 18:01 22.301974 -151.970665 69 34939ft 445kts
12-Feb-20 18:02 22.360193 -151.852673 69 34935ft 446kts
12-Feb-20 18:03 22.418211 -151.734201 69 34944ft 446kts
12-Feb-20 18:04 22.475995 -151.615981 69 34941ft 446kts
12-Feb-20 18:05 22.533728 -151.497591 68 34935ft 445kts
12-Feb-20 18:06 22.591309 -151.379236 68 34933ft 445kts
12-Feb-20 18:07 22.648802 -151.260781 68 34934ft 445kts
12-Feb-20 18:08 22.706309 -151.142023 68 34936ft 446kts
12-Feb-20 18:09 22.763751 -151.023126 67 34936ft 446kts
12-Feb-20 18:10 22.821285 -150.903758 67 34941ft 446kts
12-Feb-20 18:11 22.878504 -150.784706 67 34944ft 446kts
12-Feb-20 18:12 22.935774 -150.665311 67 34942ft 447kts
12-Feb-20 18:13 22.993002 -150.545713 67 34944ft 447kts
12-Feb-20 18:14 23.050086 -150.426125 66 34944ft 447kts
12-Feb-20 18:15 23.107113 -150.306366 66 34951ft 447kts
12-Feb-20 18:16 23.163925 -150.186771 66 34948ft 446kts
12-Feb-20 18:17 23.220675 -150.067012 66 34948ft 445kts
12-Feb-20 18:18 23.277245 -149.947331 65 34926ft 446kts
12-Feb-20 18:19 23.334060 -149.826835 65 34937ft 448kts
12-Feb-20 18:20 23.390894 -149.706009 65 34967ft 449kts
12-Feb-20 18:21 23.447736 -149.584865 65 34973ft 450kts
12-Feb-20 18:22 23.504572 -149.463427 65 34965ft 451kts
12-Feb-20 18:23 23.561461 -149.341568 65 34954ft 451kts
12-Feb-20 18:24 23.618210 -149.219698 65 34946ft 453kts
12-Feb-20 18:25 23.675129 -149.097149 65 34944ft 455kts
12-Feb-20 18:26 23.732307 -148.973729 65 34948ft 457kts
12-Feb-20 18:27 23.789422 -148.850122 65 34952ft 459kts
12-Feb-20 18:28 23.847266 -148.724612 65 34957ft 462kts
12-Feb-20 18:29 23.905055 -148.598894 65 34966ft 465kts
12-Feb-20 18:30 23.963147 -148.472157 65 34970ft 467kts
12-Feb-20 18:31 24.020517 -148.346649 65 34981ft 468kts
12-Feb-20 18:32 24.078517 -148.219469 65 34972ft 468kts
12-Feb-20 18:33 24.136532 -148.091890 65 34958ft 468kts
12-Feb-20 18:34 24.194203 -147.964719 65 34953ft 468kts
12-Feb-20 18:35 24.251979 -147.836964 65 34951ft 468kts
12-Feb-20 18:36 24.309389 -147.709668 65 34958ft 467kts
12-Feb-20 18:37 24.366901 -147.581799 64 34970ft 467kts
12-Feb-20 18:38 24.424013 -147.454462 64 34973ft 465kts
12-Feb-20 18:39 24.481042 -147.326959 64 34961ft 464kts
12-Feb-20 18:40 24.537603 -147.200152 64 34953ft 462kts
12-Feb-20 18:41 24.593860 -147.073687 64 34954ft 461kts
12-Feb-20 18:42 24.649988 -146.947148 64 34955ft 461kts
12-Feb-20 18:43 24.705987 -146.820554 63 34963ft 461kts
12-Feb-20 18:44 24.761761 -146.694050 63 34975ft 461kts
12-Feb-20 18:45 24.817585 -146.567157 63 34976ft 461kts
12-Feb-20 18:46 24.873135 -146.440520 63 34975ft 461kts
12-Feb-20 18:47 24.928850 -146.313140 63 34980ft 460kts
12-Feb-20 18:48 24.984196 -146.186246 63 34968ft 460kts
12-Feb-20 18:49 25.039453 -146.059191 63 34975ft 459kts
12-Feb-20 18:50 25.094407 -145.932474 63 34961ft 459kts
12-Feb-20 18:51 25.149465 -145.805158 63 34967ft 460kts
12-Feb-20 18:52 25.204248 -145.678143 63 34982ft 460kts
12-Feb-20 18:53 25.259050 -145.550546 63 34987ft 460kts
12-Feb-20 18:54 25.313639 -145.423117 63 34986ft 459kts
12-Feb-20 18:55 25.368311 -145.295116 63 34976ft 460kts
12-Feb-20 18:56 25.422707 -145.167374 63 34974ft 460kts
12-Feb-20 18:57 25.477027 -145.039429 63 34951ft 460kts
12-Feb-20 18:58 25.531439 -144.910883 63 34946ft 461kts
12-Feb-20 18:59 25.585781 -144.782119 63 34947ft 462kts
12-Feb-20 19:00 25.640089 -144.653056 63 34954ft 462kts
12-Feb-20 19:01 25.694068 -144.524383 63 34948ft 463kts
12-Feb-20 19:02 25.748198 -144.394967 63 34949ft 463kts
12-Feb-20 19:03 25.802332 -144.265148 63 34946ft 463kts
12-Feb-20 19:04 25.856161 -144.135666 63 34942ft 462kts
12-Feb-20 19:05 25.909947 -144.005893 63 34941ft 462kts
12-Feb-20 19:06 25.963527 -143.876221 63 34942ft 462kts
12-Feb-20 19:07 26.017037 -143.746312 63 34941ft 462kts
12-Feb-20 19:08 26.070468 -143.616199 63 34942ft 463kts
12-Feb-20 19:09 26.123760 -143.486024 63 34946ft 463kts
12-Feb-20 19:10 26.177025 -143.355508 63 34948ft 464kts
12-Feb-20 19:11 26.230301 -143.224554 63 34944ft 464kts
12-Feb-20 19:12 26.283434 -143.093543 63 34941ft 464kts
12-Feb-20 19:13 26.336245 -142.962914 63 34947ft 465kts
12-Feb-20 19:14 26.389261 -142.831362 63 34961ft 465kts
12-Feb-20 19:15 26.442299 -142.699331 63 34974ft 466kts
12-Feb-20 19:16 26.495171 -142.567294 63 34976ft 466kts
12-Feb-20 19:17 26.547858 -142.435288 63 34973ft 467kts
12-Feb-20 19:18 26.600610 -142.302702 63 34976ft 467kts
12-Feb-20 19:19 26.653225 -142.170020 63 34973ft 467kts
12-Feb-20 19:20 26.705619 -142.037469 63 34973ft 467kts
12-Feb-20 19:21 26.757962 -141.904605 63 34980ft 467kts
12-Feb-20 19:22 26.810144 -141.771716 63 34985ft 466kts
12-Feb-20 19:23 26.861948 -141.639382 63 34981ft 466kts
12-Feb-20 19:24 26.913915 -141.506173 63 34981ft 465kts
12-Feb-20 19:25 26.965440 -141.373653 63 34982ft 465kts
12-Feb-20 19:26 27.016995 -141.240610 63 34974ft 464kts
12-Feb-20 19:28 27.068026 -141.108484 63 34969ft 463kts
12-Feb-20 19:29 27.118992 -140.976083 63 34981ft 463kts
12-Feb-20 19:30 27.170157 -140.842713 63 34994ft 463kts
12-Feb-20 19:31 27.220864 -140.710092 63 35000ft 463kts
12-Feb-20 19:32 27.271479 -140.577269 63 34994ft 463kts
12-Feb-20 19:33 27.321972 -140.444317 63 34994ft 462kts
12-Feb-20 19:34 27.372326 -140.311274 63 34988ft 461kts
12-Feb-20 19:35 27.422293 -140.178804 63 34983ft 461kts
12-Feb-20 19:36 27.472160 -140.046146 63 34983ft 460kts
12-Feb-20 19:37 27.521914 -139.913333 63 34984ft 460kts
12-Feb-20 19:38 27.571305 -139.781033 63 34988ft 461kts
12-Feb-20 19:39 27.621054 -139.647318 63 34993ft 461kts
12-Feb-20 19:40 27.670268 -139.514574 63 34991ft 461kts
12-Feb-20 19:41 27.719581 -139.381104 63 34992ft 461kts
12-Feb-20 19:42 27.768811 -139.247386 63 34984ft 461kts
12-Feb-20 19:43 27.818029 -139.113231 63 34989ft 462kts
12-Feb-20 19:44 27.866782 -138.979876 63 34999ft 462kts
12-Feb-20 19:45 27.915803 -138.845301 63 35006ft 463kts
12-Feb-20 19:46 27.964792 -138.710196 63 35010ft 463kts
12-Feb-20 19:47 28.013409 -138.575638 62 35008ft 463kts
12-Feb-20 19:47 28.053830 -138.463399 62 35005ft 462kts
12-Feb-20 19:49 28.109623 -138.307910 63 34992ft 462kts
12-Feb-20 19:50 28.157740 -138.173289 63 34995ft 462kts
12-Feb-20 19:50 28.197817 -138.060788 63 35006ft 462kts
12-Feb-20 19:51 28.245941 -137.925245 63 35011ft 462kts
12-Feb-20 19:52 28.293690 -137.790261 63 35008ft 462kts
12-Feb-20 19:53 28.341397 -137.654898 63 35001ft 463kts
12-Feb-20 19:54 28.389108 -137.519017 63 35007ft 463kts
12-Feb-20 19:55 28.436632 -137.383169 63 35009ft 464kts
12-Feb-20 19:56 28.484181 -137.246738 63 35004ft 464kts
12-Feb-20 19:57 28.531415 -137.110698 63 35000ft 464kts
12-Feb-20 19:58 28.578673 -136.974072 63 35008ft 465kts
12-Feb-20 19:59 28.625758 -136.837432 63 35022ft 465kts
12-Feb-20 20:00 28.672843 -136.700273 64 35021ft 465kts
12-Feb-20 20:01 28.719785 -136.562998 64 35022ft 465kts
12-Feb-20 20:02 28.766516 -136.425812 64 35022ft 465kts
12-Feb-20 20:03 28.813233 -136.288136 64 35017ft 465kts
12-Feb-20 20:04 28.859743 -136.150539 64 35007ft 465kts
12-Feb-20 20:05 28.906078 -136.012920 64 35009ft 465kts
12-Feb-20 20:06 28.952249 -135.875250 64 35026ft 466kts
12-Feb-20 20:07 28.998370 -135.737190 64 35030ft 466kts
12-Feb-20 20:08 29.044538 -135.598437 64 35032ft 466kts
12-Feb-20 20:09 29.090249 -135.460510 64 35031ft 466kts
12-Feb-20 20:10 29.136062 -135.321723 64 35031ft 466kts
12-Feb-20 20:11 29.181743 -135.182779 64 35026ft 466kts
12-Feb-20 20:12 29.227193 -135.043981 64 35024ft 466kts
12-Feb-20 20:13 29.272475 -134.905134 64 35031ft 466kts
12-Feb-20 20:14 29.317684 -134.765943 64 35030ft 467kts
12-Feb-20 20:15 29.362649 -134.626942 63 35050ft 465kts
12-Feb-20 20:16 29.407396 -134.488051 63 35032ft 464kts
12-Feb-20 20:17 29.451969 -134.349121 64 35019ft 465kts
12-Feb-20 20:18 29.496392 -134.210092 64 35015ft 465kts
12-Feb-20 20:19 29.540633 -134.071059 64 35030ft 465kts
12-Feb-20 20:20 29.584914 -133.931318 64 35048ft 466kts
12-Feb-20 20:21 29.629178 -133.791044 64 35060ft 467kts
12-Feb-20 20:22 29.673333 -133.650525 64 35059ft 468kts
12-Feb-20 20:23 29.717336 -133.509891 64 35061ft 468kts
12-Feb-20 20:24 29.761249 -133.368949 64 35058ft 469kts
12-Feb-20 20:25 29.804978 -133.227989 65 35047ft 469kts
12-Feb-20 20:26 29.848710 -133.086418 65 35046ft 469kts
12-Feb-20 20:27 29.892322 -132.944619 65 35058ft 470kts
12-Feb-20 20:28 29.935893 -132.802330 65 35056ft 472kts
12-Feb-20 20:29 29.979400 -132.659624 65 35061ft 473kts
12-Feb-20 20:30 30.022962 -132.516109 65 35059ft 475kts
12-Feb-20 20:31 30.066526 -132.371941 65 35066ft 476kts
12-Feb-20 20:32 30.109795 -132.228107 66 35063ft 476kts
12-Feb-20 20:33 30.153062 -132.083630 66 35063ft 477kts
12-Feb-20 20:34 30.196431 -131.938145 66 35068ft 477kts
12-Feb-20 20:35 30.239454 -131.793163 66 35066ft 477kts
12-Feb-20 20:36 30.282053 -131.647680 69 35061ft 479kts
12-Feb-20 20:37 30.305019 -131.494981 76 35067ft 484kts
12-Feb-20 20:38 30.325832 -131.340918 77 35062ft 483kts
12-Feb-20 20:39 30.346350 -131.187507 77 35040ft 483kts
12-Feb-20 20:40 30.366659 -131.034228 77 35040ft 483kts
12-Feb-20 20:41 30.386829 -130.880581 77 35068ft 484kts
12-Feb-20 20:42 30.406889 -130.726328 77 35079ft 484kts
12-Feb-20 20:43 30.426785 -130.571871 77 35075ft 485kts
12-Feb-20 20:44 30.446506 -130.417302 77 35079ft 485kts
12-Feb-20 20:45 30.466059 -130.262563 77 35074ft 485kts
12-Feb-20 20:46 30.485345 -130.108453 77 35062ft 485kts
12-Feb-20 20:47 30.504469 -129.954110 77 35067ft 485kts
12-Feb-20 20:48 30.523480 -129.799132 77 35077ft 485kts
12-Feb-20 20:49 30.542308 -129.644097 77 35082ft 486kts
12-Feb-20 20:50 30.560966 -129.488895 77 35088ft 487kts
12-Feb-20 20:51 30.579519 -129.332955 78 35083ft 487kts
12-Feb-20 20:52 30.597792 -129.177765 78 35077ft 487kts
12-Feb-20 20:53 30.615981 -129.021637 78 35084ft 487kts
12-Feb-20 20:54 30.633888 -128.866299 78 35093ft 487kts
12-Feb-20 20:55 30.651709 -128.710028 78 35095ft 488kts
12-Feb-20 20:56 30.669324 -128.553866 78 35098ft 488kts
12-Feb-20 20:57 30.686780 -128.397407 78 35098ft 488kts
12-Feb-20 20:58 30.703802 -128.243120 78 35092ft 487kts
12-Feb-20 20:59 30.720790 -128.087436 78 35086ft 487kts
12-Feb-20 21:00 30.737654 -127.931091 78 35110ft 488kts
12-Feb-20 21:01 30.754339 -127.774616 78 35126ft 489kts
12-Feb-20 21:02 30.770903 -127.617453 78 35131ft 490kts
12-Feb-20 21:03 30.787268 -127.460351 78 35132ft 490kts
12-Feb-20 21:04 30.803447 -127.303128 79 35130ft 491kts
12-Feb-20 21:05 30.819498 -127.145283 79 35120ft 491kts
12-Feb-20 21:06 30.835345 -126.987474 79 35124ft 491kts
12-Feb-20 21:07 30.850974 -126.829890 79 35136ft 492kts
12-Feb-20 21:08 30.866480 -126.671550 79 35145ft 493kts
12-Feb-20 21:09 30.881782 -126.513302 78 35144ft 493kts
12-Feb-20 21:10 30.896907 -126.354841 78 35138ft 493kts
12-Feb-20 21:11 30.911882 -126.195830 79 35130ft 493kts
12-Feb-20 21:12 30.926586 -126.037641 79 35133ft 493kts
12-Feb-20 21:13 30.941168 -125.878597 79 35133ft 494kts
12-Feb-20 21:14 30.955560 -125.719462 79 35145ft 495kts
12-Feb-20 21:15 30.969799 -125.559799 79 35157ft 496kts
12-Feb-20 21:16 30.983843 -125.400084 79 35158ft 496kts
12-Feb-20 21:17 30.997728 -125.239870 79 35145ft 496kts
12-Feb-20 21:18 31.011341 -125.080517 79 35132ft 495kts
12-Feb-20 21:19 31.024779 -124.920852 79 35140ft 495kts
12-Feb-20 21:20 31.037960 -124.761875 79 35145ft 495kts
12-Feb-20 21:21 31.051053 -124.601533 79 35137ft 496kts
12-Feb-20 21:22 31.063947 -124.441137 79 35145ft 497kts
12-Feb-20 21:23 31.076623 -124.280969 80 35149ft 497kts
12-Feb-20 21:24 31.089100 -124.120812 80 35135ft 497kts
12-Feb-20 21:25 31.101250 -123.962228 80 35148ft 497kts
12-Feb-20 21:26 31.113356 -123.801641 80 35169ft 498kts
12-Feb-20 21:27 31.125305 -123.640426 79 35174ft 498kts
12-Feb-20 21:28 31.145584 -123.482490 70 35164ft 491kts
12-Feb-20 21:29 31.177393 -123.327670 70 35146ft 490kts
12-Feb-20 21:30 31.208963 -123.172923 70 35134ft 488kts
12-Feb-20 21:31 31.240171 -123.018971 70 35124ft 488kts
12-Feb-20 21:32 31.250722 -122.966699 70 35123ft 488kts
12-Feb-20 21:33 31.250722 -122.966699 70 35123ft 488kts
12-Feb-20 21:34 31.250722 -122.966699 70 35123ft 488kts
12-Feb-20 21:35 31.250722 -122.966699 70 35123ft 488kts
12-Feb-20 21:37 31.250722 -122.966699 70 35123ft 488kts
12-Feb-20 21:38 31.250722 -122.966699 70 35123ft 488kts
12-Feb-20 21:39 31.250722 -122.966699 70 35123ft 488kts
12-Feb-20 21:40 31.250722 -122.966699 70 35123ft 488kts
12-Feb-20 21:41 31.250722 -122.966699 70 35123ft 488kts
12-Feb-20 21:42 31.250722 -122.966699 70 35123ft 488kts
12-Feb-20 21:43 31.250722 -122.966699 70 35123ft 488kts
12-Feb-20 21:44 31.250722 -122.966699 70 35123ft 488kts
12-Feb-20 21:45 31.250722 -122.966699 70 35123ft 488kts
12-Feb-20 21:46 31.250722 -122.966699 70 35123ft 488kts
12-Feb-20 21:47 31.250722 -122.966699 70 35123ft 488kts
12-Feb-20 21:48 31.250722 -122.966699 70 35123ft 488kts
12-Feb-20 21:49 31.250722 -122.966699 70 35123ft 488kts
12-Feb-20 21:50 31.250722 -122.966699 70 35123ft 488kts
12-Feb-20 21:51 31.250722 -122.966699 70 35123ft 488kts
12-Feb-20 21:52 31.250722 -122.966699 70 35123ft 488kts
12-Feb-20 21:53 31.250722 -122.966699 70 35123ft 488kts
12-Feb-20 21:54 31.250722 -122.966699 70 35123ft 488kts
12-Feb-20 21:55 31.250722 -122.966699 70 35123ft 488kts
12-Feb-20 21:55 31.250722 -122.966699 70 35123ft 488kts
12-Feb-20 21:57 31.250722 -122.966699 70 35123ft 488kts
12-Feb-20 21:58 31.250722 -122.966699 70 35123ft 488kts
12-Feb-20 21:58 31.250722 -122.966699 70 35123ft 488kts
12-Feb-20 21:59 31.250722 -122.966699 70 35123ft 488kts
12-Feb-20 22:01 31.250722 -122.966699 70 35123ft 488kts
12-Feb-20 22:01 31.250722 -122.966699 70 35123ft 488kts
12-Feb-20 22:02 31.250722 -122.966699 70 35123ft 488kts
12-Feb-20 22:03 31.250722 -122.966699 70 35123ft 488kts
12-Feb-20 22:04 31.250722 -122.966699 70 35123ft 488kts
12-Feb-20 22:05 31.250722 -122.966699 70 35123ft 488kts
12-Feb-20 22:06 31.250722 -122.966699 70 35123ft 488kts
12-Feb-20 22:07 31.250722 -122.966699 70 35123ft 488kts
12-Feb-20 22:08 31.250722 -122.966699 70 35123ft 488kts
12-Feb-20 22:09 31.250722 -122.966699 70 35123ft 488kts
12-Feb-20 22:10 31.250722 -122.966699 70 35123ft 488kts
12-Feb-20 22:11 31.250722 -122.966699 70 35123ft 488kts
12-Feb-20 22:12 31.250722 -122.966699 70 35123ft 488kts
12-Feb-20 22:13 31.250722 -122.966699 70 35123ft 488kts
12-Feb-20 22:14 31.250722 -122.966699 70 35123ft 488kts
12-Feb-20 22:15 31.250722 -122.966699 70 35123ft 488kts
12-Feb-20 22:16 31.250722 -122.966699 70 35123ft 488kts
12-Feb-20 22:17 31.250722 -122.966699 70 35123ft 488kts
12-Feb-20 22:18 31.250722 -122.966699 70 35123ft 488kts
12-Feb-20 22:19 31.250722 -122.966699 70 35123ft 488kts
12-Feb-20 22:20 31.250722 -122.966699 70 35123ft 488kts
12-Feb-20 22:21 31.250722 -122.966699 70 35123ft 488kts
12-Feb-20 22:22 31.250722 -122.966699 70 35123ft 488kts
12-Feb-20 22:23 31.250722 -122.966699 70 35123ft 488kts
12-Feb-20 22:24 31.250722 -122.966699 70 35123ft 488kts
12-Feb-20 22:25 31.250722 -122.966699 70 35123ft 488kts
12-Feb-20 22:26 31.250722 -122.966699 70 35123ft 488kts
12-Feb-20 22:27 31.250722 -122.966699 70 35123ft 488kts
12-Feb-20 22:28 31.250722 -122.966699 70 35123ft 488kts
12-Feb-20 22:29 31.250722 -122.966699 70 35123ft 488kts
12-Feb-20 22:30 31.250722 -122.966699 70 35123ft 488kts
12-Feb-20 22:31 31.250722 -122.966699 70 35123ft 488kts
12-Feb-20 22:32 31.250722 -122.966699 70 35123ft 488kts
12-Feb-20 22:33 31.250722 -122.966699 70 35123ft 488kts
12-Feb-20 22:34 31.250722 -122.966699 70 35123ft 488kts
12-Feb-20 22:35 31.250722 -122.966699 70 35123ft 488kts
12-Feb-20 22:36 31.250722 -122.966699 70 35123ft 488kts
12-Feb-20 22:37 31.250722 -122.966699 70 35123ft 488kts
12-Feb-20 22:38 31.278249 -122.829769 70 35123ft 489kts
12-Feb-20 22:39 31.309297 -122.674313 70 35131ft 490kts
12-Feb-20 22:40 31.339936 -122.519914 70 35142ft 490kts
12-Feb-20 22:41 31.370700 -122.363845 70 35146ft 490kts
12-Feb-20 22:42 31.401139 -122.208366 71 35131ft 490kts
12-Feb-20 22:43 31.431302 -122.053243 71 35131ft 490kts
12-Feb-20 22:44 31.461302 -121.897893 70 35148ft 490kts
12-Feb-20 22:45 31.491199 -121.742008 70 35149ft 489kts
12-Feb-20 22:46 31.520779 -121.586696 70 35150ft 489kts
12-Feb-20 22:47 31.550224 -121.430996 70 35148ft 488kts
12-Feb-20 22:48 31.595091 -121.283975 60 35143ft 477kts
12-Feb-20 22:49 31.645062 -121.139608 60 35130ft 476kts
12-Feb-20 22:50 31.694458 -120.996299 60 35129ft 475kts
12-Feb-20 22:51 31.743792 -120.852560 60 35135ft 475kts
12-Feb-20 22:52 31.792985 -120.708611 60 35148ft 475kts
12-Feb-20 22:53 31.841951 -120.564702 60 35155ft 474kts
12-Feb-20 22:54 31.890639 -120.420982 60 35150ft 474kts
12-Feb-20 22:55 31.941031 -120.278182 51 35146ft 464kts
12-Feb-20 22:56 32.022778 -120.166774 38 35139ft 448kts
12-Feb-20 22:57 32.107834 -120.059367 38 35129ft 447kts
12-Feb-20 22:58 32.189381 -119.956060 38 35139ft 449kts
12-Feb-20 22:59 32.274042 -119.848504 39 35152ft 449kts
12-Feb-20 23:00 32.359032 -119.740211 39 35153ft 449kts
12-Feb-20 23:01 32.443865 -119.631801 39 35148ft 449kts
12-Feb-20 23:02 32.529052 -119.522609 39 35143ft 449kts
12-Feb-20 23:03 32.613441 -119.414116 39 35146ft 449kts
12-Feb-20 23:04 32.698042 -119.305023 40 35133ft 448kts
12-Feb-20 23:05 32.782685 -119.195546 40 35126ft 448kts
12-Feb-20 23:06 32.866611 -119.086669 41 35134ft 449kts
12-Feb-20 23:07 32.951207 -118.976586 41 35155ft 449kts
12-Feb-20 23:08 33.035425 -118.866663 41 35176ft 449kts
12-Feb-20 23:09 33.119227 -118.756933 41 34844ft 445kts
12-Feb-20 23:10 33.202045 -118.648173 41 32796ft 438kts
12-Feb-20 23:11 33.278257 -118.547798 42 30993ft 428kts
12-Feb-20 23:12 33.353945 -118.441577 57 29056ft 426kts
12-Feb-20 23:13 33.359375 -118.302862 96 26975ft 436kts
12-Feb-20 23:14 33.339930 -118.161504 98 24926ft 427kts
12-Feb-20 23:15 33.318059 -118.023517 98 22854ft 417kts
12-Feb-20 23:16 33.296807 -117.889134 98 20914ft 404kts
12-Feb-20 23:17 33.276113 -117.759089 98 18943ft 393kts
12-Feb-20 23:18 33.255805 -117.632511 99 17023ft 383kts
12-Feb-20 23:19 33.189234 -117.538042 138 15141ft 375kts
12-Feb-20 23:20 33.109620 -117.460581 145 13293ft 365kts
12-Feb-20 23:21 33.027744 -117.392290 144 11499ft 354kts
12-Feb-20 23:22 32.950744 -117.327663 145 9968ft 332kts
12-Feb-20 23:23 32.883248 -117.271228 145 8966ft 266kts
12-Feb-20 23:24 32.824467 -117.222447 145 7863ft 256kts
12-Feb-20 23:25 32.797165 -117.146798 104 6692ft 252kts
12-Feb-20 23:26 32.781015 -117.066377 101 5573ft 251kts
12-Feb-20 23:27 32.767171 -116.987328 102 5019ft 231kts
12-Feb-20 23:28 32.754006 -116.911942 102 5020ft 234kts
12-Feb-20 23:29 32.728154 -116.847313 164 5022ft 226kts
12-Feb-20 23:30 32.688921 -116.891323 256 5018ft 224kts
12-Feb-20 23:31 32.686626 -116.962556 278 4975ft 201kts
12-Feb-20 23:32 32.694624 -117.024234 278 4391ft 177kts
12-Feb-20 23:33 32.706154 -117.076323 285 2865ft 149kts
12-Feb-20 23:34 32.717384 -117.122706 286 1540ft 145kts
12-Feb-20 23:35 32.728311 -117.168116 285 341ft 142kts
12-Feb-20 23:36 32.734273 -117.194774 248 24ft 17kts
12-Feb-20 23:37 32.733719 -117.195853 193 26ft 6kts
12-Feb-20 23:38 32.733246 -117.196053 200 26ft 0kts
12-Feb-20 23:39 32.733246 -117.196053 200 26ft 0kts

Navigation Log

Ident Type
Flight plan parsing failed, navigation log unavailable